sensor_id;sensor_type;location;lat;lon;timestamp;temperature;humidity
20528;DHT22;23612;50.894;10.700;2023-06-14T00:01:43;13.00;99.90
20528;DHT22;23612;50.894;10.700;2023-06-14T00:04:11;12.90;99.90
20528;DHT22;23612;50.894;10.700;2023-06-14T00:06:36;12.80;99.90
20528;DHT22;23612;50.894;10.700;2023-06-14T00:09:01;12.80;99.90
20528;DHT22;23612;50.894;10.700;2023-06-14T00:11:27;12.70;99.90
20528;DHT22;23612;50.894;10.700;2023-06-14T00:13:53;12.60;99.90
20528;DHT22;23612;50.894;10.700;2023-06-14T00:16:18;12.60;99.90
20528;DHT22;23612;50.894;10.700;2023-06-14T00:18:45;12.50;99.90
20528;DHT22;23612;50.894;10.700;2023-06-14T00:21:11;12.40;99.90
20528;DHT22;23612;50.894;10.700;2023-06-14T00:23:37;12.40;99.90
20528;DHT22;23612;50.894;10.700;2023-06-14T00:26:03;12.40;99.90
20528;DHT22;23612;50.894;10.700;2023-06-14T00:28:28;12.30;99.90
20528;DHT22;23612;50.894;10.700;2023-06-14T00:30:54;12.30;99.90
20528;DHT22;23612;50.894;10.700;2023-06-14T00:33:19;12.30;99.90
20528;DHT22;23612;50.894;10.700;2023-06-14T00:35:45;12.30;99.90
20528;DHT22;23612;50.894;10.700;2023-06-14T00:38:10;12.20;99.90
20528;DHT22;23612;50.894;10.700;2023-06-14T00:40:36;12.20;99.90
20528;DHT22;23612;50.894;10.700;2023-06-14T00:43:01;12.20;99.90
20528;DHT22;23612;50.894;10.700;2023-06-14T00:45:27;12.20;99.90
20528;DHT22;23612;50.894;10.700;2023-06-14T00:47:52;12.10;99.90
20528;DHT22;23612;50.894;10.700;2023-06-14T00:50:20;12.00;99.90
20528;DHT22;23612;50.894;10.700;2023-06-14T00:52:46;12.00;99.90
20528;DHT22;23612;50.894;10.700;2023-06-14T00:55:13;12.00;99.90
20528;DHT22;23612;50.894;10.700;2023-06-14T00:57:38;11.90;99.90
20528;DHT22;23612;50.894;10.700;2023-06-14T01:00:05;11.90;99.90
20528;DHT22;23612;50.894;10.700;2023-06-14T01:02:35;11.80;99.90
20528;DHT22;23612;50.894;10.700;2023-06-14T01:05:02;11.70;99.90
20528;DHT22;23612;50.894;10.700;2023-06-14T01:07:46;11.60;99.90
20528;DHT22;23612;50.894;10.700;2023-06-14T01:10:45;11.50;99.90
20528;DHT22;23612;50.894;10.700;2023-06-14T01:13:27;11.40;99.90
20528;DHT22;23612;50.894;10.700;2023-06-14T01:15:55;11.40;99.90
20528;DHT22;23612;50.894;10.700;2023-06-14T01:18:22;11.40;99.90
20528;DHT22;23612;50.894;10.700;2023-06-14T01:20:51;11.40;99.90
20528;DHT22;23612;50.894;10.700;2023-06-14T01:23:19;11.30;99.90
20528;DHT22;23612;50.894;10.700;2023-06-14T01:25:45;11.30;99.90
20528;DHT22;23612;50.894;10.700;2023-06-14T01:28:12;11.20;99.90
20528;DHT22;23612;50.894;10.700;2023-06-14T01:30:41;11.10;99.90
20528;DHT22;23612;50.894;10.700;2023-06-14T01:33:11;11.00;99.90
20528;DHT22;23612;50.894;10.700;2023-06-14T01:35:37;10.90;99.90
20528;DHT22;23612;50.894;10.700;2023-06-14T01:38:03;10.90;99.90
20528;DHT22;23612;50.894;10.700;2023-06-14T01:40:31;10.80;99.90
20528;DHT22;23612;50.894;10.700;2023-06-14T01:42:59;10.80;99.90
20528;DHT22;23612;50.894;10.700;2023-06-14T01:45:24;10.80;99.90
20528;DHT22;23612;50.894;10.700;2023-06-14T01:47:50;10.80;99.90
20528;DHT22;23612;50.894;10.700;2023-06-14T01:50:19;10.80;99.90
20528;DHT22;23612;50.894;10.700;2023-06-14T01:52:45;10.80;99.90
20528;DHT22;23612;50.894;10.700;2023-06-14T01:55:10;10.90;99.90
20528;DHT22;23612;50.894;10.700;2023-06-14T01:57:36;10.90;99.90
20528;DHT22;23612;50.894;10.700;2023-06-14T02:00:02;10.90;99.90
20528;DHT22;23612;50.894;10.700;2023-06-14T02:02:29;10.80;99.90
20528;DHT22;23612;50.894;10.700;2023-06-14T02:04:54;10.80;99.90
20528;DHT22;23612;50.894;10.700;2023-06-14T02:07:23;10.70;99.90
20528;DHT22;23612;50.894;10.700;2023-06-14T02:09:48;10.70;99.90
20528;DHT22;23612;50.894;10.700;2023-06-14T02:12:14;10.70;99.90
20528;DHT22;23612;50.894;10.700;2023-06-14T02:14:39;10.70;99.90
20528;DHT22;23612;50.894;10.700;2023-06-14T02:17:05;10.70;99.90
20528;DHT22;23612;50.894;10.700;2023-06-14T02:19:31;10.70;99.90
20528;DHT22;23612;50.894;10.700;2023-06-14T02:21:57;10.70;99.90
20528;DHT22;23612;50.894;10.700;2023-06-14T02:24:22;10.70;99.90
20528;DHT22;23612;50.894;10.700;2023-06-14T02:26:49;10.80;99.90
20528;DHT22;23612;50.894;10.700;2023-06-14T02:29:14;10.80;99.90
20528;DHT22;23612;50.894;10.700;2023-06-14T02:31:41;10.90;99.90
20528;DHT22;23612;50.894;10.700;2023-06-14T02:34:07;10.90;99.90
20528;DHT22;23612;50.894;10.700;2023-06-14T02:36:35;10.90;99.90
20528;DHT22;23612;50.894;10.700;2023-06-14T02:39:07;10.90;99.90
20528;DHT22;23612;50.894;10.700;2023-06-14T02:41:35;10.90;99.90
20528;DHT22;23612;50.894;10.700;2023-06-14T02:44:00;10.90;99.90
20528;DHT22;23612;50.894;10.700;2023-06-14T02:46:26;10.80;99.90
20528;DHT22;23612;50.894;10.700;2023-06-14T02:48:51;10.80;99.90
20528;DHT22;23612;50.894;10.700;2023-06-14T02:51:17;10.90;99.90
20528;DHT22;23612;50.894;10.700;2023-06-14T02:53:42;10.90;99.90
20528;DHT22;23612;50.894;10.700;2023-06-14T02:56:09;10.80;99.90
20528;DHT22;23612;50.894;10.700;2023-06-14T02:58:36;10.80;99.90
20528;DHT22;23612;50.894;10.700;2023-06-14T03:01:02;10.80;99.90
20528;DHT22;23612;50.894;10.700;2023-06-14T03:03:29;10.80;99.90
20528;DHT22;23612;50.894;10.700;2023-06-14T03:05:54;10.80;99.90
20528;DHT22;23612;50.894;10.700;2023-06-14T03:08:20;10.80;99.90
20528;DHT22;23612;50.894;10.700;2023-06-14T03:10:46;10.80;99.90
20528;DHT22;23612;50.894;10.700;2023-06-14T03:13:13;10.80;99.90
20528;DHT22;23612;50.894;10.700;2023-06-14T03:15:39;10.80;99.90
20528;DHT22;23612;50.894;10.700;2023-06-14T03:18:10;10.70;99.90
20528;DHT22;23612;50.894;10.700;2023-06-14T03:20:37;10.80;99.90
20528;DHT22;23612;50.894;10.700;2023-06-14T03:23:03;10.70;99.90
20528;DHT22;23612;50.894;10.700;2023-06-14T03:25:30;10.70;99.90
20528;DHT22;23612;50.894;10.700;2023-06-14T03:27:56;10.70;99.90
20528;DHT22;23612;50.894;10.700;2023-06-14T03:30:22;10.70;99.90
20528;DHT22;23612;50.894;10.700;2023-06-14T03:32:47;10.70;99.90
20528;DHT22;23612;50.894;10.700;2023-06-14T03:35:13;10.70;99.90
20528;DHT22;23612;50.894;10.700;2023-06-14T03:37:44;10.70;99.90
20528;DHT22;23612;50.894;10.700;2023-06-14T03:40:10;10.60;99.90
20528;DHT22;23612;50.894;10.700;2023-06-14T03:42:36;10.60;99.90
20528;DHT22;23612;50.894;10.700;2023-06-14T03:45:01;10.60;99.90
20528;DHT22;23612;50.894;10.700;2023-06-14T03:47:27;10.60;99.90
20528;DHT22;23612;50.894;10.700;2023-06-14T03:49:52;10.60;99.90
20528;DHT22;23612;50.894;10.700;2023-06-14T03:52:18;10.60;99.90
20528;DHT22;23612;50.894;10.700;2023-06-14T03:54:43;10.60;99.90
20528;DHT22;23612;50.894;10.700;2023-06-14T03:57:10;10.60;99.90
20528;DHT22;23612;50.894;10.700;2023-06-14T03:59:35;10.70;99.90
20528;DHT22;23612;50.894;10.700;2023-06-14T04:02:01;10.80;99.90
20528;DHT22;23612;50.894;10.700;2023-06-14T04:04:27;10.80;99.90
20528;DHT22;23612;50.894;10.700;2023-06-14T04:06:55;10.80;99.90
20528;DHT22;23612;50.894;10.700;2023-06-14T04:09:24;10.80;99.90
20528;DHT22;23612;50.894;10.700;2023-06-14T04:11:51;10.80;99.90
20528;DHT22;23612;50.894;10.700;2023-06-14T04:14:18;10.80;99.90
20528;DHT22;23612;50.894;10.700;2023-06-14T04:16:44;10.80;99.90
20528;DHT22;23612;50.894;10.700;2023-06-14T04:19:09;10.80;99.90
20528;DHT22;23612;50.894;10.700;2023-06-14T04:21:35;10.80;99.90
20528;DHT22;23612;50.894;10.700;2023-06-14T04:24:00;10.80;99.90
20528;DHT22;23612;50.894;10.700;2023-06-14T04:26:27;10.80;99.90
20528;DHT22;23612;50.894;10.700;2023-06-14T04:28:59;10.90;99.90
20528;DHT22;23612;50.894;10.700;2023-06-14T04:31:30;10.90;99.90
20528;DHT22;23612;50.894;10.700;2023-06-14T04:33:59;11.10;99.90
20528;DHT22;23612;50.894;10.700;2023-06-14T04:36:24;11.20;99.90
20528;DHT22;23612;50.894;10.700;2023-06-14T04:38:50;11.30;99.90
20528;DHT22;23612;50.894;10.700;2023-06-14T04:41:20;11.40;99.90
20528;DHT22;23612;50.894;10.700;2023-06-14T04:43:48;11.40;99.90
20528;DHT22;23612;50.894;10.700;2023-06-14T04:46:14;11.50;99.90
20528;DHT22;23612;50.894;10.700;2023-06-14T04:48:40;11.60;99.90
20528;DHT22;23612;50.894;10.700;2023-06-14T04:51:11;11.60;99.90
20528;DHT22;23612;50.894;10.700;2023-06-14T04:53:36;11.70;99.90
20528;DHT22;23612;50.894;10.700;2023-06-14T04:56:02;11.70;99.90
20528;DHT22;23612;50.894;10.700;2023-06-14T04:58:29;11.70;99.90
20528;DHT22;23612;50.894;10.700;2023-06-14T05:00:55;11.70;99.90
20528;DHT22;23612;50.894;10.700;2023-06-14T05:03:22;11.70;99.90
20528;DHT22;23612;50.894;10.700;2023-06-14T05:05:47;11.90;99.90
20528;DHT22;23612;50.894;10.700;2023-06-14T05:08:13;12.00;99.90
20528;DHT22;23612;50.894;10.700;2023-06-14T05:10:38;12.10;99.90
20528;DHT22;23612;50.894;10.700;2023-06-14T05:13:04;12.30;99.90
20528;DHT22;23612;50.894;10.700;2023-06-14T05:15:29;12.50;99.90
20528;DHT22;23612;50.894;10.700;2023-06-14T05:17:55;12.80;99.90
20528;DHT22;23612;50.894;10.700;2023-06-14T05:20:24;12.80;99.90
20528;DHT22;23612;50.894;10.700;2023-06-14T05:22:54;13.10;99.90
20528;DHT22;23612;50.894;10.700;2023-06-14T05:25:20;13.30;99.90
20528;DHT22;23612;50.894;10.700;2023-06-14T05:27:47;13.40;99.90
20528;DHT22;23612;50.894;10.700;2023-06-14T05:30:14;13.50;99.90
20528;DHT22;23612;50.894;10.700;2023-06-14T05:32:39;13.60;99.90
20528;DHT22;23612;50.894;10.700;2023-06-14T05:35:05;13.90;99.90
20528;DHT22;23612;50.894;10.700;2023-06-14T05:37:31;14.30;99.90
20528;DHT22;23612;50.894;10.700;2023-06-14T05:39:57;14.60;99.90
20528;DHT22;23612;50.894;10.700;2023-06-14T05:42:22;15.10;99.90
20528;DHT22;23612;50.894;10.700;2023-06-14T05:44:48;15.30;99.90
20528;DHT22;23612;50.894;10.700;2023-06-14T05:47:13;15.80;99.90
20528;DHT22;23612;50.894;10.700;2023-06-14T05:49:39;16.10;99.90
20528;DHT22;23612;50.894;10.700;2023-06-14T05:52:05;16.30;99.90
20528;DHT22;23612;50.894;10.700;2023-06-14T05:54:31;16.70;99.90
20528;DHT22;23612;50.894;10.700;2023-06-14T05:56:56;17.00;99.90
20528;DHT22;23612;50.894;10.700;2023-06-14T05:59:29;17.20;99.90
20528;DHT22;23612;50.894;10.700;2023-06-14T06:01:54;17.60;99.90
20528;DHT22;23612;50.894;10.700;2023-06-14T06:04:20;18.10;99.90
20528;DHT22;23612;50.894;10.700;2023-06-14T06:06:45;18.20;99.90
20528;DHT22;23612;50.894;10.700;2023-06-14T06:09:12;18.60;99.90
20528;DHT22;23612;50.894;10.700;2023-06-14T06:11:37;18.90;99.90
20528;DHT22;23612;50.894;10.700;2023-06-14T06:14:03;19.30;99.90
20528;DHT22;23612;50.894;10.700;2023-06-14T06:16:28;18.90;99.90
20528;DHT22;23612;50.894;10.700;2023-06-14T06:18:53;19.10;99.90
20528;DHT22;23612;50.894;10.700;2023-06-14T06:21:19;19.30;99.90
20528;DHT22;23612;50.894;10.700;2023-06-14T06:23:45;19.60;99.90
20528;DHT22;23612;50.894;10.700;2023-06-14T06:26:10;19.80;99.90
20528;DHT22;23612;50.894;10.700;2023-06-14T06:28:35;20.10;99.90
20528;DHT22;23612;50.894;10.700;2023-06-14T06:31:01;20.10;99.90
20528;DHT22;23612;50.894;10.700;2023-06-14T06:33:26;20.70;99.90
20528;DHT22;23612;50.894;10.700;2023-06-14T06:35:52;20.90;99.90
20528;DHT22;23612;50.894;10.700;2023-06-14T06:38:17;21.10;99.90
20528;DHT22;23612;50.894;10.700;2023-06-14T06:40:44;20.60;99.90
20528;DHT22;23612;50.894;10.700;2023-06-14T06:43:09;21.00;99.90
20528;DHT22;23612;50.894;10.700;2023-06-14T06:45:39;21.00;99.90
20528;DHT22;23612;50.894;10.700;2023-06-14T06:48:04;21.50;99.90
20528;DHT22;23612;50.894;10.700;2023-06-14T06:50:30;21.50;99.90
20528;DHT22;23612;50.894;10.700;2023-06-14T06:52:55;21.80;99.90
20528;DHT22;23612;50.894;10.700;2023-06-14T06:55:21;21.90;99.90
20528;DHT22;23612;50.894;10.700;2023-06-14T06:57:46;21.60;99.90
20528;DHT22;23612;50.894;10.700;2023-06-14T07:00:12;20.60;99.90
20528;DHT22;23612;50.894;10.700;2023-06-14T07:02:38;20.70;99.90
20528;DHT22;23612;50.894;10.700;2023-06-14T07:05:03;20.90;99.90
20528;DHT22;23612;50.894;10.700;2023-06-14T07:07:29;20.50;99.90
20528;DHT22;23612;50.894;10.700;2023-06-14T07:09:55;21.30;99.90
20528;DHT22;23612;50.894;10.700;2023-06-14T07:12:23;21.70;99.90
20528;DHT22;23612;50.894;10.700;2023-06-14T07:14:48;22.10;99.90
20528;DHT22;23612;50.894;10.700;2023-06-14T07:17:14;22.40;99.90
20528;DHT22;23612;50.894;10.700;2023-06-14T07:19:39;22.90;99.90
20528;DHT22;23612;50.894;10.700;2023-06-14T07:22:05;23.10;99.90
20528;DHT22;23612;50.894;10.700;2023-06-14T07:24:30;22.90;99.90
20528;DHT22;23612;50.894;10.700;2023-06-14T07:26:56;23.20;99.90
20528;DHT22;23612;50.894;10.700;2023-06-14T07:29:21;23.40;99.90
20528;DHT22;23612;50.894;10.700;2023-06-14T07:31:47;23.70;99.90
20528;DHT22;23612;50.894;10.700;2023-06-14T07:34:12;24.00;99.90
20528;DHT22;23612;50.894;10.700;2023-06-14T07:36:38;24.00;99.50
20528;DHT22;23612;50.894;10.700;2023-06-14T07:39:04;24.40;99.20
20528;DHT22;23612;50.894;10.700;2023-06-14T07:41:32;24.30;98.10
20528;DHT22;23612;50.894;10.700;2023-06-14T07:43:57;24.40;98.00
20528;DHT22;23612;50.894;10.700;2023-06-14T07:46:23;24.20;98.00
20528;DHT22;23612;50.894;10.700;2023-06-14T07:48:48;24.00;98.60
20528;DHT22;23612;50.894;10.700;2023-06-14T07:51:14;24.30;98.90
20528;DHT22;23612;50.894;10.700;2023-06-14T07:53:39;24.40;97.00
20528;DHT22;23612;50.894;10.700;2023-06-14T07:56:06;24.30;96.80
20528;DHT22;23612;50.894;10.700;2023-06-14T07:58:31;23.80;97.60
20528;DHT22;23612;50.894;10.700;2023-06-14T08:00:57;24.20;97.40
20528;DHT22;23612;50.894;10.700;2023-06-14T08:03:22;24.60;96.80
20528;DHT22;23612;50.894;10.700;2023-06-14T08:05:49;24.80;96.00
20528;DHT22;23612;50.894;10.700;2023-06-14T08:08:15;25.40;95.50
20528;DHT22;23612;50.894;10.700;2023-06-14T08:10:41;25.50;94.60
20528;DHT22;23612;50.894;10.700;2023-06-14T08:13:07;25.20;94.10
20528;DHT22;23612;50.894;10.700;2023-06-14T08:15:32;24.40;94.70
20528;DHT22;23612;50.894;10.700;2023-06-14T08:17:58;24.70;95.30
20528;DHT22;23612;50.894;10.700;2023-06-14T08:20:25;25.40;94.40
20528;DHT22;23612;50.894;10.700;2023-06-14T08:22:51;25.30;93.90
20528;DHT22;23612;50.894;10.700;2023-06-14T08:25:20;25.80;93.00
20528;DHT22;23612;50.894;10.700;2023-06-14T08:27:46;26.00;93.40
20528;DHT22;23612;50.894;10.700;2023-06-14T08:30:11;26.40;92.40
20528;DHT22;23612;50.894;10.700;2023-06-14T08:32:37;27.00;91.00
20528;DHT22;23612;50.894;10.700;2023-06-14T08:35:03;27.10;90.20
20528;DHT22;23612;50.894;10.700;2023-06-14T08:37:30;26.40;90.60
20528;DHT22;23612;50.894;10.700;2023-06-14T08:39:55;26.00;90.50
20528;DHT22;23612;50.894;10.700;2023-06-14T08:42:22;26.10;90.20
20528;DHT22;23612;50.894;10.700;2023-06-14T08:44:49;26.40;89.10
20528;DHT22;23612;50.894;10.700;2023-06-14T08:47:15;26.40;88.10
20528;DHT22;23612;50.894;10.700;2023-06-14T08:49:46;26.30;88.60
20528;DHT22;23612;50.894;10.700;2023-06-14T08:52:15;26.40;87.10
20528;DHT22;23612;50.894;10.700;2023-06-14T08:54:44;26.10;88.00
20528;DHT22;23612;50.894;10.700;2023-06-14T08:57:12;26.00;87.60
20528;DHT22;23612;50.894;10.700;2023-06-14T08:59:46;26.00;87.80
20528;DHT22;23612;50.894;10.700;2023-06-14T09:02:12;25.80;88.30
20528;DHT22;23612;50.894;10.700;2023-06-14T09:04:39;25.90;87.30
20528;DHT22;23612;50.894;10.700;2023-06-14T09:07:05;26.20;86.80
20528;DHT22;23612;50.894;10.700;2023-06-14T09:09:32;25.80;87.20
20528;DHT22;23612;50.894;10.700;2023-06-14T09:11:57;25.10;86.90
20528;DHT22;23612;50.894;10.700;2023-06-14T09:14:24;24.10;90.10
20528;DHT22;23612;50.894;10.700;2023-06-14T09:16:54;23.60;91.10
20528;DHT22;23612;50.894;10.700;2023-06-14T09:19:25;23.10;91.60
20528;DHT22;23612;50.894;10.700;2023-06-14T09:21:52;23.10;91.70
20528;DHT22;23612;50.894;10.700;2023-06-14T09:24:18;23.30;91.10
20528;DHT22;23612;50.894;10.700;2023-06-14T09:26:47;23.90;91.60
20528;DHT22;23612;50.894;10.700;2023-06-14T09:29:12;23.00;90.80
20528;DHT22;23612;50.894;10.700;2023-06-14T09:31:38;22.50;93.00
20528;DHT22;23612;50.894;10.700;2023-06-14T09:34:03;23.10;92.80
20528;DHT22;23612;50.894;10.700;2023-06-14T09:36:31;24.00;92.00
20528;DHT22;23612;50.894;10.700;2023-06-14T09:38:58;23.80;90.60
20528;DHT22;23612;50.894;10.700;2023-06-14T09:41:31;24.60;91.20
20528;DHT22;23612;50.894;10.700;2023-06-14T09:43:58;25.60;88.00
20528;DHT22;23612;50.894;10.700;2023-06-14T09:46:27;24.50;87.50
20528;DHT22;23612;50.894;10.700;2023-06-14T09:48:53;25.20;89.30
20528;DHT22;23612;50.894;10.700;2023-06-14T09:51:20;25.90;87.00
20528;DHT22;23612;50.894;10.700;2023-06-14T09:53:49;24.70;85.90
20528;DHT22;23612;50.894;10.700;2023-06-14T09:56:27;24.40;87.80
20528;DHT22;23612;50.894;10.700;2023-06-14T09:58:56;23.90;89.50
20528;DHT22;23612;50.894;10.700;2023-06-14T10:01:24;24.40;88.90
20528;DHT22;23612;50.894;10.700;2023-06-14T10:03:51;24.30;88.70
20528;DHT22;23612;50.894;10.700;2023-06-14T10:06:19;24.50;88.00
20528;DHT22;23612;50.894;10.700;2023-06-14T10:08:47;25.10;87.60
20528;DHT22;23612;50.894;10.700;2023-06-14T10:11:13;25.00;86.40
20528;DHT22;23612;50.894;10.700;2023-06-14T10:13:39;25.80;86.10
20528;DHT22;23612;50.894;10.700;2023-06-14T10:16:18;26.40;83.20
20528;DHT22;23612;50.894;10.700;2023-06-14T10:18:51;26.40;83.20
20528;DHT22;23612;50.894;10.700;2023-06-14T10:24:07;25.90;83.40
20528;DHT22;23612;50.894;10.700;2023-06-14T10:26:32;25.30;83.40
20528;DHT22;23612;50.894;10.700;2023-06-14T10:29:07;24.70;86.10
20528;DHT22;23612;50.894;10.700;2023-06-14T10:31:40;25.40;85.40
20528;DHT22;23612;50.894;10.700;2023-06-14T10:34:07;25.10;81.80
20528;DHT22;23612;50.894;10.700;2023-06-14T10:36:33;24.40;84.00
20528;DHT22;23612;50.894;10.700;2023-06-14T10:39:07;24.50;85.10
20528;DHT22;23612;50.894;10.700;2023-06-14T10:41:38;25.30;84.00
20528;DHT22;23612;50.894;10.700;2023-06-14T10:46:58;26.30;80.90
20528;DHT22;23612;50.894;10.700;2023-06-14T10:49:41;26.40;78.00
20528;DHT22;23612;50.894;10.700;2023-06-14T10:52:12;26.70;79.60
20528;DHT22;23612;50.894;10.700;2023-06-14T10:55:04;27.00;77.40
20528;DHT22;23612;50.894;10.700;2023-06-14T10:57:38;26.80;77.00
20528;DHT22;23612;50.894;10.700;2023-06-14T11:00:06;26.20;78.40
20528;DHT22;23612;50.894;10.700;2023-06-14T11:05:29;26.80;77.50
20528;DHT22;23612;50.894;10.700;2023-06-14T11:10:39;28.10;74.60
20528;DHT22;23612;50.894;10.700;2023-06-14T11:13:06;28.40;71.60
20528;DHT22;23612;50.894;10.700;2023-06-14T11:15:33;28.40;71.10
20528;DHT22;23612;50.894;10.700;2023-06-14T11:18:02;28.60;71.80
20528;DHT22;23612;50.894;10.700;2023-06-14T11:20:32;28.30;70.90
20528;DHT22;23612;50.894;10.700;2023-06-14T11:22:57;28.10;71.50
20528;DHT22;23612;50.894;10.700;2023-06-14T11:25:24;27.30;72.30
20528;DHT22;23612;50.894;10.700;2023-06-14T11:27:50;26.70;74.00
20528;DHT22;23612;50.894;10.700;2023-06-14T11:30:16;27.20;73.40
20528;DHT22;23612;50.894;10.700;2023-06-14T11:32:41;27.10;71.30
20528;DHT22;23612;50.894;10.700;2023-06-14T11:35:08;26.00;73.20
20528;DHT22;23612;50.894;10.700;2023-06-14T11:37:36;25.30;74.90
20528;DHT22;23612;50.894;10.700;2023-06-14T11:40:06;24.70;75.10
20528;DHT22;23612;50.894;10.700;2023-06-14T11:42:35;25.10;76.30
20528;DHT22;23612;50.894;10.700;2023-06-14T11:45:01;26.10;73.50
20528;DHT22;23612;50.894;10.700;2023-06-14T11:47:34;26.10;72.40
20528;DHT22;23612;50.894;10.700;2023-06-14T11:50:00;26.40;71.30
20528;DHT22;23612;50.894;10.700;2023-06-14T11:52:26;27.20;69.50
20528;DHT22;23612;50.894;10.700;2023-06-14T11:54:52;27.70;68.10
20528;DHT22;23612;50.894;10.700;2023-06-14T11:57:18;27.00;68.10
20528;DHT22;23612;50.894;10.700;2023-06-14T11:59:44;27.00;69.90
20528;DHT22;23612;50.894;10.700;2023-06-14T12:02:14;27.70;68.80
20528;DHT22;23612;50.894;10.700;2023-06-14T12:04:43;27.20;67.20
20528;DHT22;23612;50.894;10.700;2023-06-14T12:07:13;26.50;68.10
20528;DHT22;23612;50.894;10.700;2023-06-14T12:09:41;26.20;69.40
20528;DHT22;23612;50.894;10.700;2023-06-14T12:12:09;26.70;68.90
20528;DHT22;23612;50.894;10.700;2023-06-14T12:14:36;27.40;66.60
20528;DHT22;23612;50.894;10.700;2023-06-14T12:17:05;26.80;67.80
20528;DHT22;23612;50.894;10.700;2023-06-14T12:19:32;27.40;66.40
20528;DHT22;23612;50.894;10.700;2023-06-14T12:21:59;28.20;65.60
20528;DHT22;23612;50.894;10.700;2023-06-14T12:24:29;28.80;65.20
20528;DHT22;23612;50.894;10.700;2023-06-14T12:26:57;28.80;64.10
20528;DHT22;23612;50.894;10.700;2023-06-14T12:29:25;29.20;61.80
20528;DHT22;23612;50.894;10.700;2023-06-14T12:31:50;28.80;60.20
20528;DHT22;23612;50.894;10.700;2023-06-14T12:34:16;28.70;61.40
20528;DHT22;23612;50.894;10.700;2023-06-14T12:36:41;28.90;63.70
20528;DHT22;23612;50.894;10.700;2023-06-14T12:39:10;29.90;62.70
20528;DHT22;23612;50.894;10.700;2023-06-14T12:41:35;29.50;62.80
20528;DHT22;23612;50.894;10.700;2023-06-14T12:44:02;29.20;59.10
20528;DHT22;23612;50.894;10.700;2023-06-14T12:46:30;28.70;60.10
20528;DHT22;23612;50.894;10.700;2023-06-14T12:48:57;26.60;63.60
20528;DHT22;23612;50.894;10.700;2023-06-14T12:51:23;25.70;68.20
20528;DHT22;23612;50.894;10.700;2023-06-14T12:53:49;25.40;69.50
20528;DHT22;23612;50.894;10.700;2023-06-14T12:56:14;25.70;69.60
20528;DHT22;23612;50.894;10.700;2023-06-14T12:58:41;25.90;67.70
20528;DHT22;23612;50.894;10.700;2023-06-14T13:01:06;25.40;67.50
20528;DHT22;23612;50.894;10.700;2023-06-14T13:03:32;25.60;67.20
20528;DHT22;23612;50.894;10.700;2023-06-14T13:05:59;24.70;68.90
20528;DHT22;23612;50.894;10.700;2023-06-14T13:08:24;24.50;72.20
20528;DHT22;23612;50.894;10.700;2023-06-14T13:10:50;24.40;73.10
20528;DHT22;23612;50.894;10.700;2023-06-14T13:13:15;24.50;74.60
20528;DHT22;23612;50.894;10.700;2023-06-14T13:15:41;24.60;73.40
20528;DHT22;23612;50.894;10.700;2023-06-14T13:18:06;24.70;72.20
20528;DHT22;23612;50.894;10.700;2023-06-14T13:20:31;24.90;71.20
20528;DHT22;23612;50.894;10.700;2023-06-14T13:22:59;24.90;71.70
20528;DHT22;23612;50.894;10.700;2023-06-14T13:25:24;24.80;71.70
20528;DHT22;23612;50.894;10.700;2023-06-14T13:27:50;24.90;73.50
20528;DHT22;23612;50.894;10.700;2023-06-14T13:30:15;25.10;70.60
20528;DHT22;23612;50.894;10.700;2023-06-14T13:32:41;24.70;70.60
20528;DHT22;23612;50.894;10.700;2023-06-14T13:35:07;24.60;72.40
20528;DHT22;23612;50.894;10.700;2023-06-14T13:37:32;24.90;72.80
20528;DHT22;23612;50.894;10.700;2023-06-14T13:39:58;24.90;69.90
20528;DHT22;23612;50.894;10.700;2023-06-14T13:42:23;24.80;70.40
20528;DHT22;23612;50.894;10.700;2023-06-14T13:44:49;24.80;71.30
20528;DHT22;23612;50.894;10.700;2023-06-14T13:47:16;24.40;71.70
20528;DHT22;23612;50.894;10.700;2023-06-14T13:49:42;23.80;73.20
20528;DHT22;23612;50.894;10.700;2023-06-14T13:52:07;23.60;74.20
20528;DHT22;23612;50.894;10.700;2023-06-14T13:54:33;23.50;74.30
20528;DHT22;23612;50.894;10.700;2023-06-14T13:56:58;23.70;76.10
20528;DHT22;23612;50.894;10.700;2023-06-14T13:59:24;23.80;74.40
20528;DHT22;23612;50.894;10.700;2023-06-14T14:01:50;24.00;75.20
20528;DHT22;23612;50.894;10.700;2023-06-14T14:04:15;23.80;74.30
20528;DHT22;23612;50.894;10.700;2023-06-14T14:06:41;24.00;76.70
20528;DHT22;23612;50.894;10.700;2023-06-14T14:09:08;23.60;78.20
20528;DHT22;23612;50.894;10.700;2023-06-14T14:11:34;23.20;78.20
20528;DHT22;23612;50.894;10.700;2023-06-14T14:13:59;23.30;78.80
20528;DHT22;23612;50.894;10.700;2023-06-14T14:16:25;23.60;78.50
20528;DHT22;23612;50.894;10.700;2023-06-14T14:18:51;23.80;78.80
20528;DHT22;23612;50.894;10.700;2023-06-14T14:21:16;23.80;77.60
20528;DHT22;23612;50.894;10.700;2023-06-14T14:23:42;23.90;79.90
20528;DHT22;23612;50.894;10.700;2023-06-14T14:26:07;24.00;77.10
20528;DHT22;23612;50.894;10.700;2023-06-14T14:28:33;24.00;78.00
20528;DHT22;23612;50.894;10.700;2023-06-14T14:30:58;24.20;76.60
20528;DHT22;23612;50.894;10.700;2023-06-14T14:33:24;23.90;76.70
20528;DHT22;23612;50.894;10.700;2023-06-14T14:35:50;24.10;77.40
20528;DHT22;23612;50.894;10.700;2023-06-14T14:38:16;24.00;76.90
20528;DHT22;23612;50.894;10.700;2023-06-14T14:40:42;23.90;77.30
20528;DHT22;23612;50.894;10.700;2023-06-14T14:43:08;24.00;78.60
20528;DHT22;23612;50.894;10.700;2023-06-14T14:45:33;24.10;77.70
20528;DHT22;23612;50.894;10.700;2023-06-14T14:48:00;24.20;76.00
20528;DHT22;23612;50.894;10.700;2023-06-14T14:50:26;24.10;76.60
20528;DHT22;23612;50.894;10.700;2023-06-14T14:52:51;23.70;75.50
20528;DHT22;23612;50.894;10.700;2023-06-14T14:55:17;23.60;76.00
20528;DHT22;23612;50.894;10.700;2023-06-14T14:57:43;23.70;77.40
20528;DHT22;23612;50.894;10.700;2023-06-14T15:00:09;23.70;77.60
20528;DHT22;23612;50.894;10.700;2023-06-14T15:02:35;23.90;75.60
20528;DHT22;23612;50.894;10.700;2023-06-14T15:05:00;24.00;74.70
20528;DHT22;23612;50.894;10.700;2023-06-14T15:07:27;23.90;76.40
20528;DHT22;23612;50.894;10.700;2023-06-14T15:09:54;23.80;76.70
20528;DHT22;23612;50.894;10.700;2023-06-14T15:12:19;23.40;76.80
20528;DHT22;23612;50.894;10.700;2023-06-14T15:14:50;23.50;78.50
20528;DHT22;23612;50.894;10.700;2023-06-14T15:17:16;23.10;79.10
20528;DHT22;23612;50.894;10.700;2023-06-14T15:19:41;22.90;81.20
20528;DHT22;23612;50.894;10.700;2023-06-14T15:22:07;22.40;81.70
20528;DHT22;23612;50.894;10.700;2023-06-14T15:24:32;22.20;82.10